sensor_id;sensor_type;location;lat;lon;timestamp;P1;durP1;ratioP1;P2;durP2;ratioP2
58637;SDS011;54976;51.510;7.522;2023-05-07T00:01:45;57.22;;;22.63;;
58637;SDS011;54976;51.510;7.522;2023-05-07T00:04:46;32.28;;;17.45;;
58637;SDS011;54976;51.510;7.522;2023-05-07T00:07:46;34.28;;;15.80;;
58637;SDS011;54976;51.510;7.522;2023-05-07T00:10:47;27.85;;;17.67;;
58637;SDS011;54976;51.510;7.522;2023-05-07T00:13:48;33.45;;;16.73;;
58637;SDS011;54976;51.510;7.522;2023-05-07T00:16:48;40.53;;;19.52;;
58637;SDS011;54976;51.510;7.522;2023-05-07T00:19:49;45.65;;;20.55;;
58637;SDS011;54976;51.510;7.522;2023-05-07T00:22:49;33.28;;;17.48;;
58637;SDS011;54976;51.510;7.522;2023-05-07T00:25:50;30.60;;;16.85;;
58637;SDS011;54976;51.510;7.522;2023-05-07T00:28:51;39.53;;;18.65;;
58637;SDS011;54976;51.510;7.522;2023-05-07T00:31:51;70.45;;;22.70;;
58637;SDS011;54976;51.510;7.522;2023-05-07T00:34:54;23.92;;;14.77;;
58637;SDS011;54976;51.510;7.522;2023-05-07T00:37:55;30.20;;;16.52;;
58637;SDS011;54976;51.510;7.522;2023-05-07T00:40:56;26.83;;;16.38;;
58637;SDS011;54976;51.510;7.522;2023-05-07T00:43:56;25.27;;;16.20;;
58637;SDS011;54976;51.510;7.522;2023-05-07T00:46:57;22.15;;;14.70;;
58637;SDS011;54976;51.510;7.522;2023-05-07T00:49:58;36.25;;;18.95;;
58637;SDS011;54976;51.510;7.522;2023-05-07T00:52:59;27.88;;;15.45;;
58637;SDS011;54976;51.510;7.522;2023-05-07T00:56:00;82.50;;;23.65;;
58637;SDS011;54976;51.510;7.522;2023-05-07T00:59:01;36.63;;;21.02;;
58637;SDS011;54976;51.510;7.522;2023-05-07T01:02:02;44.78;;;23.02;;
58637;SDS011;54976;51.510;7.522;2023-05-07T01:05:04;68.78;;;26.05;;
58637;SDS011;54976;51.510;7.522;2023-05-07T01:08:07;32.17;;;19.23;;
58637;SDS011;54976;51.510;7.522;2023-05-07T01:11:08;42.45;;;22.48;;
58637;SDS011;54976;51.510;7.522;2023-05-07T01:14:11;52.35;;;23.67;;
58637;SDS011;54976;51.510;7.522;2023-05-07T01:17:11;72.57;;;26.52;;
58637;SDS011;54976;51.510;7.522;2023-05-07T01:20:12;110.05;;;30.50;;
58637;SDS011;54976;51.510;7.522;2023-05-07T01:23:13;56.75;;;25.08;;
58637;SDS011;54976;51.510;7.522;2023-05-07T01:26:15;60.63;;;25.45;;
58637;SDS011;54976;51.510;7.522;2023-05-07T01:29:16;68.03;;;24.55;;
58637;SDS011;54976;51.510;7.522;2023-05-07T01:32:17;59.55;;;25.50;;
58637;SDS011;54976;51.510;7.522;2023-05-07T01:35:22;58.95;;;23.60;;
58637;SDS011;54976;51.510;7.522;2023-05-07T01:38:26;36.72;;;20.58;;
58637;SDS011;54976;51.510;7.522;2023-05-07T01:41:27;42.85;;;23.23;;
58637;SDS011;54976;51.510;7.522;2023-05-07T01:44:28;61.85;;;26.23;;
58637;SDS011;54976;51.510;7.522;2023-05-07T01:47:29;72.35;;;28.38;;
58637;SDS011;54976;51.510;7.522;2023-05-07T01:50:30;66.25;;;27.38;;
58637;SDS011;54976;51.510;7.522;2023-05-07T01:53:35;58.17;;;26.13;;
58637;SDS011;54976;51.510;7.522;2023-05-07T01:56:36;72.07;;;28.85;;
58637;SDS011;54976;51.510;7.522;2023-05-07T01:59:37;69.15;;;27.83;;
58637;SDS011;54976;51.510;7.522;2023-05-07T02:02:37;36.75;;;19.52;;
58637;SDS011;54976;51.510;7.522;2023-05-07T02:05:38;34.67;;;22.23;;
58637;SDS011;54976;51.510;7.522;2023-05-07T02:08:39;107.47;;;32.70;;
58637;SDS011;54976;51.510;7.522;2023-05-07T02:11:39;61.83;;;26.73;;
58637;SDS011;54976;51.510;7.522;2023-05-07T02:14:40;51.20;;;24.50;;
58637;SDS011;54976;51.510;7.522;2023-05-07T02:21:00;34.42;;;21.02;;
58637;SDS011;54976;51.510;7.522;2023-05-07T02:24:00;76.28;;;27.67;;
58637;SDS011;54976;51.510;7.522;2023-05-07T02:27:01;64.63;;;27.30;;
58637;SDS011;54976;51.510;7.522;2023-05-07T02:30:03;108.43;;;32.58;;
58637;SDS011;54976;51.510;7.522;2023-05-07T02:33:04;84.60;;;30.92;;
58637;SDS011;54976;51.510;7.522;2023-05-07T02:36:08;76.70;;;29.10;;
58637;SDS011;54976;51.510;7.522;2023-05-07T02:39:10;65.30;;;27.88;;
58637;SDS011;54976;51.510;7.522;2023-05-07T02:42:11;34.92;;;20.75;;
58637;SDS011;54976;51.510;7.522;2023-05-07T02:45:11;69.65;;;28.40;;
58637;SDS011;54976;51.510;7.522;2023-05-07T02:48:12;55.33;;;25.48;;
58637;SDS011;54976;51.510;7.522;2023-05-07T02:51:14;60.15;;;27.42;;
58637;SDS011;54976;51.510;7.522;2023-05-07T02:54:14;63.42;;;28.13;;
58637;SDS011;54976;51.510;7.522;2023-05-07T02:57:15;79.35;;;30.30;;
58637;SDS011;54976;51.510;7.522;2023-05-07T03:00:19;77.65;;;31.10;;
58637;SDS011;54976;51.510;7.522;2023-05-07T03:03:20;157.80;;;39.00;;
58637;SDS011;54976;51.510;7.522;2023-05-07T03:06:20;84.00;;;31.95;;
58637;SDS011;54976;51.510;7.522;2023-05-07T03:09:21;58.72;;;28.27;;
58637;SDS011;54976;51.510;7.522;2023-05-07T03:12:22;79.05;;;33.35;;
58637;SDS011;54976;51.510;7.522;2023-05-07T03:15:22;76.05;;;32.80;;
58637;SDS011;54976;51.510;7.522;2023-05-07T03:18:23;137.20;;;38.80;;
58637;SDS011;54976;51.510;7.522;2023-05-07T03:21:23;88.60;;;37.22;;
58637;SDS011;54976;51.510;7.522;2023-05-07T03:24:26;92.50;;;32.70;;
58637;SDS011;54976;51.510;7.522;2023-05-07T03:27:26;75.32;;;29.40;;
58637;SDS011;54976;51.510;7.522;2023-05-07T03:30:27;61.67;;;30.80;;
58637;SDS011;54976;51.510;7.522;2023-05-07T03:33:28;63.55;;;29.98;;
58637;SDS011;54976;51.510;7.522;2023-05-07T03:36:28;75.43;;;32.08;;
58637;SDS011;54976;51.510;7.522;2023-05-07T03:39:29;64.05;;;30.83;;
58637;SDS011;54976;51.510;7.522;2023-05-07T03:42:30;48.83;;;27.08;;
58637;SDS011;54976;51.510;7.522;2023-05-07T03:45:31;55.30;;;27.75;;
58637;SDS011;54976;51.510;7.522;2023-05-07T03:48:31;47.50;;;27.30;;
58637;SDS011;54976;51.510;7.522;2023-05-07T03:51:32;90.72;;;34.47;;
58637;SDS011;54976;51.510;7.522;2023-05-07T03:54:32;246.48;;;45.30;;
58637;SDS011;54976;51.510;7.522;2023-05-07T03:57:33;83.55;;;33.42;;
58637;SDS011;54976;51.510;7.522;2023-05-07T04:00:33;60.97;;;31.33;;
58637;SDS011;54976;51.510;7.522;2023-05-07T04:03:38;65.60;;;31.83;;
58637;SDS011;54976;51.510;7.522;2023-05-07T04:06:38;60.20;;;29.40;;
58637;SDS011;54976;51.510;7.522;2023-05-07T04:09:39;59.75;;;28.80;;
58637;SDS011;54976;51.510;7.522;2023-05-07T04:12:39;85.15;;;33.53;;
58637;SDS011;54976;51.510;7.522;2023-05-07T04:15:40;46.67;;;26.67;;
58637;SDS011;54976;51.510;7.522;2023-05-07T04:18:41;49.25;;;26.60;;
58637;SDS011;54976;51.510;7.522;2023-05-07T04:21:41;50.05;;;27.00;;
58637;SDS011;54976;51.510;7.522;2023-05-07T04:24:42;62.78;;;27.90;;
58637;SDS011;54976;51.510;7.522;2023-05-07T04:27:43;49.28;;;24.40;;
58637;SDS011;54976;51.510;7.522;2023-05-07T04:30:44;40.13;;;23.42;;
58637;SDS011;54976;51.510;7.522;2023-05-07T04:33:44;37.83;;;22.80;;
58637;SDS011;54976;51.510;7.522;2023-05-07T04:36:45;55.53;;;24.20;;
58637;SDS011;54976;51.510;7.522;2023-05-07T04:39:46;30.00;;;19.00;;
58637;SDS011;54976;51.510;7.522;2023-05-07T04:42:46;28.80;;;18.67;;
58637;SDS011;54976;51.510;7.522;2023-05-07T04:45:47;30.75;;;18.63;;
58637;SDS011;54976;51.510;7.522;2023-05-07T04:48:49;28.55;;;17.70;;
58637;SDS011;54976;51.510;7.522;2023-05-07T04:51:49;19.80;;;14.60;;
58637;SDS011;54976;51.510;7.522;2023-05-07T04:54:50;19.27;;;13.50;;
58637;SDS011;54976;51.510;7.522;2023-05-07T04:57:51;18.55;;;14.13;;
58637;SDS011;54976;51.510;7.522;2023-05-07T05:00:52;22.05;;;14.45;;
58637;SDS011;54976;51.510;7.522;2023-05-07T05:03:53;18.05;;;12.32;;
58637;SDS011;54976;51.510;7.522;2023-05-07T05:06:54;12.07;;;10.77;;
58637;SDS011;54976;51.510;7.522;2023-05-07T05:09:54;18.42;;;11.18;;
58637;SDS011;54976;51.510;7.522;2023-05-07T05:12:55;16.48;;;11.00;;
58637;SDS011;54976;51.510;7.522;2023-05-07T05:15:56;21.52;;;12.65;;
58637;SDS011;54976;51.510;7.522;2023-05-07T05:18:56;15.40;;;10.35;;
58637;SDS011;54976;51.510;7.522;2023-05-07T05:21:57;15.23;;;10.05;;
58637;SDS011;54976;51.510;7.522;2023-05-07T05:24:57;14.02;;;9.02;;
58637;SDS011;54976;51.510;7.522;2023-05-07T05:27:58;18.65;;;10.00;;
58637;SDS011;54976;51.510;7.522;2023-05-07T05:30:58;13.40;;;8.80;;
58637;SDS011;54976;51.510;7.522;2023-05-07T05:33:59;16.48;;;10.50;;
58637;SDS011;54976;51.510;7.522;2023-05-07T05:37:00;17.55;;;10.48;;
58637;SDS011;54976;51.510;7.522;2023-05-07T05:40:01;16.60;;;10.82;;
58637;SDS011;54976;51.510;7.522;2023-05-07T05:43:02;10.57;;;9.23;;
58637;SDS011;54976;51.510;7.522;2023-05-07T05:46:02;12.23;;;9.48;;
58637;SDS011;54976;51.510;7.522;2023-05-07T05:49:04;16.48;;;8.65;;
58637;SDS011;54976;51.510;7.522;2023-05-07T05:52:05;13.23;;;8.13;;
58637;SDS011;54976;51.510;7.522;2023-05-07T05:55:05;8.40;;;7.10;;
58637;SDS011;54976;51.510;7.522;2023-05-07T05:58:06;12.05;;;7.25;;
58637;SDS011;54976;51.510;7.522;2023-05-07T06:01:07;8.07;;;6.63;;
58637;SDS011;54976;51.510;7.522;2023-05-07T06:04:08;7.50;;;6.32;;
58637;SDS011;54976;51.510;7.522;2023-05-07T06:07:08;6.75;;;5.80;;
58637;SDS011;54976;51.510;7.522;2023-05-07T06:10:09;10.43;;;7.03;;
58637;SDS011;54976;51.510;7.522;2023-05-07T06:13:10;7.00;;;5.95;;
58637;SDS011;54976;51.510;7.522;2023-05-07T06:16:10;7.55;;;5.63;;
58637;SDS011;54976;51.510;7.522;2023-05-07T06:19:11;8.18;;;6.07;;
58637;SDS011;54976;51.510;7.522;2023-05-07T06:22:11;9.73;;;5.82;;
58637;SDS011;54976;51.510;7.522;2023-05-07T06:25:12;6.03;;;5.25;;
58637;SDS011;54976;51.510;7.522;2023-05-07T06:28:12;6.95;;;5.47;;
58637;SDS011;54976;51.510;7.522;2023-05-07T06:31:14;7.45;;;4.95;;
58637;SDS011;54976;51.510;7.522;2023-05-07T06:34:16;6.45;;;5.20;;
58637;SDS011;54976;51.510;7.522;2023-05-07T06:37:16;11.13;;;5.97;;
58637;SDS011;54976;51.510;7.522;2023-05-07T06:40:17;6.03;;;5.38;;
58637;SDS011;54976;51.510;7.522;2023-05-07T06:43:17;10.13;;;5.40;;
58637;SDS011;54976;51.510;7.522;2023-05-07T06:46:18;8.07;;;6.18;;
58637;SDS011;54976;51.510;7.522;2023-05-07T06:49:19;11.70;;;6.53;;
58637;SDS011;54976;51.510;7.522;2023-05-07T06:52:19;7.32;;;5.78;;
58637;SDS011;54976;51.510;7.522;2023-05-07T06:55:20;10.95;;;6.60;;
58637;SDS011;54976;51.510;7.522;2023-05-07T06:58:20;11.55;;;6.55;;
58637;SDS011;54976;51.510;7.522;2023-05-07T07:01:21;8.27;;;5.80;;
58637;SDS011;54976;51.510;7.522;2023-05-07T07:04:22;7.18;;;6.00;;
58637;SDS011;54976;51.510;7.522;2023-05-07T07:07:23;9.25;;;6.70;;
58637;SDS011;54976;51.510;7.522;2023-05-07T07:10:24;6.95;;;6.25;;
58637;SDS011;54976;51.510;7.522;2023-05-07T07:13:24;7.05;;;6.03;;
58637;SDS011;54976;51.510;7.522;2023-05-07T07:16:25;7.20;;;6.05;;
58637;SDS011;54976;51.510;7.522;2023-05-07T07:19:26;11.80;;;5.55;;
58637;SDS011;54976;51.510;7.522;2023-05-07T07:22:26;8.52;;;6.32;;
58637;SDS011;54976;51.510;7.522;2023-05-07T07:25:27;8.23;;;4.95;;
58637;SDS011;54976;51.510;7.522;2023-05-07T07:28:28;10.82;;;5.35;;
58637;SDS011;54976;51.510;7.522;2023-05-07T07:31:28;8.40;;;5.90;;
58637;SDS011;54976;51.510;7.522;2023-05-07T07:34:30;6.75;;;5.68;;
58637;SDS011;54976;51.510;7.522;2023-05-07T07:37:30;8.82;;;6.00;;
58637;SDS011;54976;51.510;7.522;2023-05-07T07:40:31;10.25;;;6.07;;
58637;SDS011;54976;51.510;7.522;2023-05-07T07:43:34;8.73;;;5.50;;
58637;SDS011;54976;51.510;7.522;2023-05-07T07:46:35;7.20;;;5.25;;
58637;SDS011;54976;51.510;7.522;2023-05-07T07:49:36;6.65;;;5.53;;
58637;SDS011;54976;51.510;7.522;2023-05-07T07:52:36;6.30;;;5.70;;
58637;SDS011;54976;51.510;7.522;2023-05-07T07:55:38;8.63;;;5.95;;
58637;SDS011;54976;51.510;7.522;2023-05-07T07:58:39;10.55;;;6.50;;
58637;SDS011;54976;51.510;7.522;2023-05-07T08:01:40;9.75;;;7.45;;
58637;SDS011;54976;51.510;7.522;2023-05-07T08:04:40;12.40;;;6.43;;
58637;SDS011;54976;51.510;7.522;2023-05-07T08:07:43;14.52;;;6.80;;
58637;SDS011;54976;51.510;7.522;2023-05-07T08:10:43;10.75;;;7.18;;
58637;SDS011;54976;51.510;7.522;2023-05-07T08:13:45;9.27;;;8.27;;
58637;SDS011;54976;51.510;7.522;2023-05-07T08:16:46;9.52;;;7.75;;
58637;SDS011;54976;51.510;7.522;2023-05-07T08:19:46;10.82;;;7.88;;
58637;SDS011;54976;51.510;7.522;2023-05-07T08:22:47;8.57;;;7.72;;
58637;SDS011;54976;51.510;7.522;2023-05-07T08:25:48;9.95;;;7.70;;
58637;SDS011;54976;51.510;7.522;2023-05-07T08:28:49;12.05;;;8.75;;
58637;SDS011;54976;51.510;7.522;2023-05-07T08:31:49;12.27;;;9.18;;
58637;SDS011;54976;51.510;7.522;2023-05-07T08:34:50;12.38;;;9.40;;
58637;SDS011;54976;51.510;7.522;2023-05-07T08:37:51;14.13;;;11.73;;
58637;SDS011;54976;51.510;7.522;2023-05-07T08:40:51;13.63;;;11.32;;
58637;SDS011;54976;51.510;7.522;2023-05-07T08:43:52;16.65;;;10.93;;
58637;SDS011;54976;51.510;7.522;2023-05-07T08:46:56;12.45;;;11.20;;
58637;SDS011;54976;51.510;7.522;2023-05-07T08:49:58;14.85;;;10.20;;
58637;SDS011;54976;51.510;7.522;2023-05-07T08:52:58;14.15;;;10.57;;
58637;SDS011;54976;51.510;7.522;2023-05-07T08:56:00;18.75;;;11.40;;
58637;SDS011;54976;51.510;7.522;2023-05-07T08:59:01;13.48;;;11.18;;
58637;SDS011;54976;51.510;7.522;2023-05-07T09:02:01;12.55;;;11.07;;
58637;SDS011;54976;51.510;7.522;2023-05-07T09:05:02;14.73;;;10.77;;
58637;SDS011;54976;51.510;7.522;2023-05-07T09:08:03;14.63;;;11.77;;
58637;SDS011;54976;51.510;7.522;2023-05-07T09:11:06;13.85;;;10.93;;
58637;SDS011;54976;51.510;7.522;2023-05-07T09:14:06;16.73;;;11.77;;
58637;SDS011;54976;51.510;7.522;2023-05-07T09:17:07;14.20;;;11.10;;
58637;SDS011;54976;51.510;7.522;2023-05-07T09:20:08;16.90;;;11.38;;
58637;SDS011;54976;51.510;7.522;2023-05-07T09:23:09;18.48;;;11.18;;
58637;SDS011;54976;51.510;7.522;2023-05-07T09:26:10;13.98;;;11.05;;
58637;SDS011;54976;51.510;7.522;2023-05-07T09:29:15;12.68;;;10.13;;
58637;SDS011;54976;51.510;7.522;2023-05-07T09:32:17;14.23;;;10.43;;
58637;SDS011;54976;51.510;7.522;2023-05-07T09:35:17;17.65;;;10.90;;
58637;SDS011;54976;51.510;7.522;2023-05-07T09:38:18;15.02;;;10.50;;
58637;SDS011;54976;51.510;7.522;2023-05-07T09:41:21;12.63;;;9.38;;
58637;SDS011;54976;51.510;7.522;2023-05-07T09:44:22;18.27;;;10.82;;
58637;SDS011;54976;51.510;7.522;2023-05-07T09:47:23;11.90;;;10.55;;
58637;SDS011;54976;51.510;7.522;2023-05-07T09:50:29;15.57;;;9.40;;
58637;SDS011;54976;51.510;7.522;2023-05-07T09:53:36;13.80;;;10.18;;
58637;SDS011;54976;51.510;7.522;2023-05-07T09:56:37;12.35;;;10.07;;
58637;SDS011;54976;51.510;7.522;2023-05-07T09:59:42;14.32;;;9.65;;
58637;SDS011;54976;51.510;7.522;2023-05-07T10:02:43;12.23;;;8.70;;
58637;SDS011;54976;51.510;7.522;2023-05-07T10:05:49;11.20;;;8.15;;
58637;SDS011;54976;51.510;7.522;2023-05-07T10:08:50;12.55;;;8.63;;
58637;SDS011;54976;51.510;7.522;2023-05-07T10:11:52;11.70;;;8.82;;
58637;SDS011;54976;51.510;7.522;2023-05-07T10:14:54;11.15;;;8.98;;
58637;SDS011;54976;51.510;7.522;2023-05-07T10:17:56;8.80;;;7.65;;
58637;SDS011;54976;51.510;7.522;2023-05-07T10:21:08;10.45;;;7.65;;
58637;SDS011;54976;51.510;7.522;2023-05-07T10:24:19;11.40;;;8.55;;
58637;SDS011;54976;51.510;7.522;2023-05-07T10:27:24;10.65;;;6.53;;
58637;SDS011;54976;51.510;7.522;2023-05-07T10:34:01;12.45;;;8.20;;
58637;SDS011;54976;51.510;7.522;2023-05-07T10:37:08;7.20;;;6.50;;
58637;SDS011;54976;51.510;7.522;2023-05-07T10:40:11;12.50;;;8.50;;
58637;SDS011;54976;51.510;7.522;2023-05-07T10:43:13;8.80;;;7.90;;
58637;SDS011;54976;51.510;7.522;2023-05-07T10:46:14;8.95;;;7.88;;
58637;SDS011;54976;51.510;7.522;2023-05-07T10:49:16;9.80;;;6.70;;
58637;SDS011;54976;51.510;7.522;2023-05-07T10:52:18;7.45;;;6.55;;
58637;SDS011;54976;51.510;7.522;2023-05-07T10:55:21;13.90;;;7.63;;
58637;SDS011;54976;51.510;7.522;2023-05-07T10:58:22;10.07;;;6.85;;
58637;SDS011;54976;51.510;7.522;2023-05-07T11:05:18;9.18;;;7.60;;
58637;SDS011;54976;51.510;7.522;2023-05-07T11:08:22;9.73;;;7.82;;
58637;SDS011;54976;51.510;7.522;2023-05-07T11:14:52;10.40;;;7.80;;
58637;SDS011;54976;51.510;7.522;2023-05-07T11:17:54;10.88;;;7.97;;
58637;SDS011;54976;51.510;7.522;2023-05-07T11:20:56;9.43;;;8.10;;
58637;SDS011;54976;51.510;7.522;2023-05-07T11:23:58;13.77;;;8.25;;
58637;SDS011;54976;51.510;7.522;2023-05-07T11:27:00;8.95;;;7.40;;
58637;SDS011;54976;51.510;7.522;2023-05-07T11:30:00;13.82;;;7.82;;
58637;SDS011;54976;51.510;7.522;2023-05-07T11:33:01;10.07;;;8.00;;
58637;SDS011;54976;51.510;7.522;2023-05-07T11:36:03;9.98;;;7.18;;
58637;SDS011;54976;51.510;7.522;2023-05-07T11:39:04;10.90;;;7.40;;
58637;SDS011;54976;51.510;7.522;2023-05-07T11:42:05;8.80;;;7.50;;
58637;SDS011;54976;51.510;7.522;2023-05-07T11:45:06;8.68;;;6.18;;
58637;SDS011;54976;51.510;7.522;2023-05-07T11:48:07;8.07;;;7.28;;
58637;SDS011;54976;51.510;7.522;2023-05-07T11:51:08;6.97;;;5.70;;
58637;SDS011;54976;51.510;7.522;2023-05-07T11:54:11;9.20;;;6.25;;
58637;SDS011;54976;51.510;7.522;2023-05-07T11:57:15;8.57;;;6.82;;
58637;SDS011;54976;51.510;7.522;2023-05-07T12:00:15;7.47;;;5.65;;
58637;SDS011;54976;51.510;7.522;2023-05-07T12:03:16;11.98;;;7.10;;
58637;SDS011;54976;51.510;7.522;2023-05-07T12:06:18;15.23;;;7.57;;
58637;SDS011;54976;51.510;7.522;2023-05-07T12:09:18;9.23;;;6.03;;
58637;SDS011;54976;51.510;7.522;2023-05-07T12:12:19;8.25;;;6.82;;
58637;SDS011;54976;51.510;7.522;2023-05-07T12:15:22;10.20;;;7.57;;
58637;SDS011;54976;51.510;7.522;2023-05-07T12:18:23;8.40;;;6.07;;
58637;SDS011;54976;51.510;7.522;2023-05-07T12:21:24;8.15;;;6.45;;
58637;SDS011;54976;51.510;7.522;2023-05-07T12:24:25;10.80;;;7.32;;
58637;SDS011;54976;51.510;7.522;2023-05-07T12:27:26;9.43;;;6.18;;
58637;SDS011;54976;51.510;7.522;2023-05-07T12:30:26;7.00;;;5.10;;
58637;SDS011;54976;51.510;7.522;2023-05-07T12:33:27;7.03;;;4.82;;
58637;SDS011;54976;51.510;7.522;2023-05-07T12:36:35;5.53;;;4.55;;
58637;SDS011;54976;51.510;7.522;2023-05-07T12:39:49;6.72;;;4.18;;
58637;SDS011;54976;51.510;7.522;2023-05-07T12:43:03;4.50;;;3.70;;
58637;SDS011;54976;51.510;7.522;2023-05-07T12:46:04;6.82;;;4.20;;
58637;SDS011;54976;51.510;7.522;2023-05-07T12:49:06;6.47;;;4.53;;
58637;SDS011;54976;51.510;7.522;2023-05-07T12:52:07;8.02;;;4.80;;
58637;SDS011;54976;51.510;7.522;2023-05-07T12:55:08;10.77;;;4.22;;
58637;SDS011;54976;51.510;7.522;2023-05-07T12:58:14;5.90;;;5.03;;
58637;SDS011;54976;51.510;7.522;2023-05-07T13:01:18;8.43;;;5.47;;
58637;SDS011;54976;51.510;7.522;2023-05-07T13:04:19;7.95;;;5.15;;
58637;SDS011;54976;51.510;7.522;2023-05-07T13:07:24;5.32;;;4.53;;
58637;SDS011;54976;51.510;7.522;2023-05-07T13:10:25;7.95;;;5.03;;
58637;SDS011;54976;51.510;7.522;2023-05-07T13:13:26;8.05;;;4.30;;
58637;SDS011;54976;51.510;7.522;2023-05-07T13:16:27;5.50;;;4.80;;
58637;SDS011;54976;51.510;7.522;2023-05-07T13:19:28;10.00;;;4.40;;
58637;SDS011;54976;51.510;7.522;2023-05-07T13:22:28;6.28;;;4.05;;
58637;SDS011;54976;51.510;7.522;2023-05-07T13:25:29;5.57;;;3.83;;
58637;SDS011;54976;51.510;7.522;2023-05-07T13:28:30;8.13;;;4.15;;
58637;SDS011;54976;51.510;7.522;2023-05-07T13:31:31;6.25;;;4.40;;
58637;SDS011;54976;51.510;7.522;2023-05-07T13:34:32;6.15;;;5.05;;
58637;SDS011;54976;51.510;7.522;2023-05-07T13:37:32;6.50;;;4.88;;
58637;SDS011;54976;51.510;7.522;2023-05-07T13:40:33;8.35;;;4.68;;
58637;SDS011;54976;51.510;7.522;2023-05-07T13:43:34;5.38;;;4.57;;
58637;SDS011;54976;51.510;7.522;2023-05-07T13:46:34;7.10;;;4.93;;
58637;SDS011;54976;51.510;7.522;2023-05-07T13:49:35;7.32;;;5.20;;
58637;SDS011;54976;51.510;7.522;2023-05-07T13:52:36;9.57;;;4.50;;
58637;SDS011;54976;51.510;7.522;2023-05-07T13:55:37;7.82;;;4.80;;
58637;SDS011;54976;51.510;7.522;2023-05-07T13:58:38;6.68;;;5.05;;
58637;SDS011;54976;51.510;7.522;2023-05-07T14:01:39;7.90;;;5.68;;
58637;SDS011;54976;51.510;7.522;2023-05-07T14:04:39;12.18;;;5.53;;
58637;SDS011;54976;51.510;7.522;2023-05-07T14:07:40;7.20;;;5.50;;
58637;SDS011;54976;51.510;7.522;2023-05-07T14:10:40;6.65;;;5.43;;
58637;SDS011;54976;51.510;7.522;2023-05-07T14:13:41;10.70;;;5.57;;
58637;SDS011;54976;51.510;7.522;2023-05-07T14:16:42;9.23;;;6.13;;
58637;SDS011;54976;51.510;7.522;2023-05-07T14:19:43;7.30;;;5.53;;
58637;SDS011;54976;51.510;7.522;2023-05-07T14:22:44;8.05;;;5.78;;
58637;SDS011;54976;51.510;7.522;2023-05-07T14:25:45;8.90;;;5.80;;
58637;SDS011;54976;51.510;7.522;2023-05-07T14:28:47;6.50;;;5.43;;
58637;SDS011;54976;51.510;7.522;2023-05-07T14:31:48;6.63;;;5.55;;
58637;SDS011;54976;51.510;7.522;2023-05-07T14:34:48;7.72;;;5.32;;
58637;SDS011;54976;51.510;7.522;2023-05-07T14:37:50;8.95;;;6.00;;
58637;SDS011;54976;51.510;7.522;2023-05-07T14:40:50;8.15;;;5.93;;
58637;SDS011;54976;51.510;7.522;2023-05-07T14:43:52;7.30;;;5.93;;
58637;SDS011;54976;51.510;7.522;2023-05-07T14:46:52;9.48;;;5.63;;
58637;SDS011;54976;51.510;7.522;2023-05-07T14:49:53;6.25;;;5.63;;
58637;SDS011;54976;51.510;7.522;2023-05-07T14:52:54;7.32;;;5.47;;
58637;SDS011;54976;51.510;7.522;2023-05-07T14:55:55;5.53;;;4.97;;
58637;SDS011;54976;51.510;7.522;2023-05-07T14:58:55;8.55;;;5.80;;
58637;SDS011;54976;51.510;7.522;2023-05-07T15:01:57;5.63;;;5.05;;
58637;SDS011;54976;51.510;7.522;2023-05-07T15:04:58;6.00;;;4.57;;
58637;SDS011;54976;51.510;7.522;2023-05-07T15:07:59;7.95;;;3.97;;
58637;SDS011;54976;51.510;7.522;2023-05-07T15:11:00;5.22;;;3.47;;
58637;SDS011;54976;51.510;7.522;2023-05-07T15:14:00;3.50;;;3.20;;
58637;SDS011;54976;51.510;7.522;2023-05-07T15:17:01;3.58;;;3.10;;
58637;SDS011;54976;51.510;7.522;2023-05-07T15:20:02;3.80;;;2.72;;
58637;SDS011;54976;51.510;7.522;2023-05-07T15:23:05;5.50;;;2.58;;
58637;SDS011;54976;51.510;7.522;2023-05-07T15:26:09;8.30;;;2.20;;
58637;SDS011;54976;51.510;7.522;2023-05-07T15:29:10;4.90;;;2.80;;
58637;SDS011;54976;51.510;7.522;2023-05-07T15:32:11;4.80;;;2.80;;
58637;SDS011;54976;51.510;7.522;2023-05-07T15:35:11;5.50;;;2.90;;
58637;SDS011;54976;51.510;7.522;2023-05-07T15:38:12;4.28;;;2.90;;
58637;SDS011;54976;51.510;7.522;2023-05-07T15:41:13;4.72;;;3.20;;
58637;SDS011;54976;51.510;7.522;2023-05-07T15:44:14;3.92;;;3.42;;
58637;SDS011;54976;51.510;7.522;2023-05-07T15:47:14;4.82;;;3.70;;
58637;SDS011;54976;51.510;7.522;2023-05-07T15:50:15;5.00;;;3.33;;
58637;SDS011;54976;51.510;7.522;2023-05-07T15:53:16;6.00;;;3.75;;
58637;SDS011;54976;51.510;7.522;2023-05-07T15:56:16;4.30;;;3.53;;
58637;SDS011;54976;51.510;7.522;2023-05-07T15:59:17;3.85;;;3.50;;
58637;SDS011;54976;51.510;7.522;2023-05-07T16:02:18;3.50;;;3.20;;
58637;SDS011;54976;51.510;7.522;2023-05-07T16:05:18;4.43;;;3.10;;
58637;SDS011;54976;51.510;7.522;2023-05-07T16:08:19;4.78;;;3.13;;
58637;SDS011;54976;51.510;7.522;2023-05-07T16:11:20;4.45;;;3.45;;
58637;SDS011;54976;51.510;7.522;2023-05-07T16:14:21;7.38;;;3.53;;
58637;SDS011;54976;51.510;7.522;2023-05-07T16:17:22;3.63;;;3.20;;
58637;SDS011;54976;51.510;7.522;2023-05-07T16:20:25;3.47;;;3.08;;
58637;SDS011;54976;51.510;7.522;2023-05-07T16:23:28;3.80;;;2.83;;
58637;SDS011;54976;51.510;7.522;2023-05-07T16:26:30;3.33;;;3.03;;
58637;SDS011;54976;51.510;7.522;2023-05-07T16:29:30;3.35;;;2.55;;
58637;SDS011;54976;51.510;7.522;2023-05-07T16:32:31;3.88;;;2.40;;
58637;SDS011;54976;51.510;7.522;2023-05-07T16:35:32;3.28;;;2.10;;
58637;SDS011;54976;51.510;7.522;2023-05-07T16:38:32;5.13;;;2.47;;
58637;SDS011;54976;51.510;7.522;2023-05-07T16:41:33;2.17;;;1.98;;
58637;SDS011;54976;51.510;7.522;2023-05-07T16:44:33;4.88;;;2.22;;
58637;SDS011;54976;51.510;7.522;2023-05-07T16:47:34;6.25;;;2.05;;
58637;SDS011;54976;51.510;7.522;2023-05-07T16:50:35;2.10;;;1.90;;
58637;SDS011;54976;51.510;7.522;2023-05-07T16:53:35;2.92;;;2.22;;
58637;SDS011;54976;51.510;7.522;2023-05-07T16:56:36;5.25;;;1.95;;
58637;SDS011;54976;51.510;7.522;2023-05-07T16:59:37;7.20;;;2.00;;
58637;SDS011;54976;51.510;7.522;2023-05-07T17:02:38;4.57;;;2.35;;
58637;SDS011;54976;51.510;7.522;2023-05-07T17:05:38;1.98;;;1.80;;
58637;SDS011;54976;51.510;7.522;2023-05-07T17:08:40;4.03;;;2.13;;
58637;SDS011;54976;51.510;7.522;2023-05-07T17:11:41;5.28;;;2.47;;
58637;SDS011;54976;51.510;7.522;2023-05-07T17:14:42;2.83;;;2.20;;
58637;SDS011;54976;51.510;7.522;2023-05-07T17:17:42;2.42;;;2.17;;
58637;SDS011;54976;51.510;7.522;2023-05-07T17:20:43;3.35;;;2.28;;
58637;SDS011;54976;51.510;7.522;2023-05-07T17:23:43;3.20;;;2.17;;
58637;SDS011;54976;51.510;7.522;2023-05-07T17:26:46;2.72;;;2.15;;
58637;SDS011;54976;51.510;7.522;2023-05-07T17:29:47;2.80;;;2.13;;
58637;SDS011;54976;51.510;7.522;2023-05-07T17:32:47;1.98;;;1.67;;
58637;SDS011;54976;51.510;7.522;2023-05-07T17:35:48;4.45;;;1.95;;
58637;SDS011;54976;51.510;7.522;2023-05-07T17:38:48;4.78;;;2.10;;
58637;SDS011;54976;51.510;7.522;2023-05-07T17:41:49;2.25;;;2.00;;
58637;SDS011;54976;51.510;7.522;2023-05-07T17:44:50;2.45;;;1.67;;
58637;SDS011;54976;51.510;7.522;2023-05-07T17:47:50;2.85;;;1.80;;
58637;SDS011;54976;51.510;7.522;2023-05-07T17:50:51;3.15;;;1.85;;
58637;SDS011;54976;51.510;7.522;2023-05-07T17:53:52;2.35;;;1.85;;
58637;SDS011;54976;51.510;7.522;2023-05-07T17:56:52;2.00;;;1.73;;
58637;SDS011;54976;51.510;7.522;2023-05-07T17:59:53;8.02;;;2.60;;
58637;SDS011;54976;51.510;7.522;2023-05-07T18:02:53;9.70;;;2.60;;
58637;SDS011;54976;51.510;7.522;2023-05-07T18:05:54;4.18;;;2.40;;
58637;SDS011;54976;51.510;7.522;2023-05-07T18:08:55;4.13;;;2.08;;
58637;SDS011;54976;51.510;7.522;2023-05-07T18:11:55;3.03;;;2.47;;